Terminal Aerodrome Forecast
Issued by NWS Twin Cities, MN

Home | Current Version | Previous Version | Graphics & Text | Print | Product List | Glossary On
Versions: 1 2 3 4 5 6 7 8 9 10 11 12 13 14 15 16
000
FTUS43 KMPX 230520
TAFEAU
TAF
KEAU 230520Z 2306/2406 VRB02KT P6SM BKN250
     FM231500 18005KT P6SM BKN150
     FM232000 22010KT P6SM SCT060 BKN120
     FM240100 14003KT P6SM BKN060 OVC100=

USA.gov is the U.S. government's official web portal to all federal, state and local government web resources and services.